Monterrey Gen Maria, México

10:37 PM EST en Febrero 11, 2016 (GMT -0500)
Gen Mariano Escobedo International | | Change Station
CLOSE
Current Station
Aeropuerto
Location: Monterrey Gen Maria,
Altura: 1270 ft
Estaciones meteorológicas cercanas

Alt 1270 ft 25.78 °N, 100.11 °W | Updated 57 minutes ago

Clear
Despejado
64 ° F
Sensación térmica 64 ° F
N
2
Viento Variable Viento desde ESE

Hoy
Alta -- | Baja -- ° F
--% Posibilidad de precipitaciones
Ayer
Alta -- | Baja -- ° F
Precip. -- pul
Presión 30.13 pul
Visibilidad 12.0 Millas
Nubes Despejado
Punto de rocío 28 ° F
Humedad 26%
Precipitaciones 0.00 pul
Espesor de la nieve No disponible.
8:18 AM 7:30 PM
Creciente, 17% visible
METAR MMMY 120240Z 12002KT 12SM SKC 18/M02 A3013 RMK SLP203 53007 991
Presión 30.13 pul
Visibilidad 12.0 Millas
Nubes Despejado
Punto de rocío 28 ° F
Humedad 26%
Precipitaciones 0.00 pul
Espesor de la nieve No disponible.
8:18 AM 7:30 PM
Creciente, 17% visible
METAR MMMY 120240Z 12002KT 12SM SKC 18/M02 A3013 RMK SLP203 53007 991

10-Day Weather Forecast

No radar image for this location.
×

Almanac

Astronomía

Feb. 11, 2016 Salida Puesta
Hora real
Crepúsculo civil
Crepúsculo náutico
Crepúsculo astronómico
Luna
Horas de luz
Horas de luz
Tomorrow will be .
, % of the Moon is Illuminated

Extremos de hoy

Máximos del país Bajas del país

Community

WunderPhotos

Upload Photos

1,892,249 ¡fotos cargadas!

WunderBlog® & News

Nearby

Calidad del aire

  Calidad del aire Índice AQ Contaminante
Not available.

Grosos de nieve

Estación Profundido Altura

Actividad de terremotos

Ciudad Distance Mag. Tiempo y dato
Magnitud mínima muestra es 2,5.

Temperaturas de aguas costeras

Lugar Temperatura

Stations

Estaciones meteorológicas cercanas

Ubicación de la estación Temp. Vientos helados Punto de rocío Humedad Viento Precip. Alt Actualizado Tipo